createdAt,value
2022-11-23T00:01:23.425Z,5.35
2022-11-23T00:03:54.000Z,5.34
2022-11-23T00:06:23.070Z,6.51
2022-11-23T00:08:51.927Z,7.20
2022-11-23T00:11:21.904Z,7.74
2022-11-23T00:13:49.824Z,7.97
2022-11-23T00:16:20.478Z,7.85
2022-11-23T00:18:48.631Z,6.74
2022-11-23T00:21:17.738Z,5.40
2022-11-23T00:23:45.695Z,4.44
2022-11-23T00:26:14.193Z,4.75
2022-11-23T00:28:42.231Z,5.89
2022-11-23T00:31:13.755Z,6.90
2022-11-23T00:33:42.225Z,7.46
2022-11-23T00:36:15.239Z,7.77
2022-11-23T00:38:44.145Z,7.85
2022-11-23T00:41:18.936Z,8.08
2022-11-23T00:43:47.489Z,7.56
2022-11-23T00:46:17.842Z,6.15
2022-11-23T00:48:48.216Z,4.97
2022-11-23T00:51:19.277Z,4.92
2022-11-23T00:53:47.308Z,6.12
2022-11-23T00:56:16.316Z,6.94
2022-11-23T00:58:51.851Z,7.54
2022-11-23T01:01:22.928Z,7.91
2022-11-23T01:03:53.712Z,8.05
2022-11-23T01:06:24.366Z,7.31
2022-11-23T01:08:58.951Z,5.80
2022-11-23T01:11:29.165Z,5.02
2022-11-23T01:13:56.967Z,5.92
2022-11-23T01:16:30.915Z,6.75
2022-11-23T01:19:03.656Z,7.34
2022-11-23T01:21:33.917Z,7.61
2022-11-23T01:24:09.243Z,7.78
2022-11-23T01:26:40.952Z,7.45
2022-11-23T01:29:08.917Z,6.01
2022-11-23T01:31:45.950Z,4.94
2022-11-23T01:34:16.032Z,5.40
2022-11-23T01:36:44.470Z,6.56
2022-11-23T01:39:12.484Z,7.03
2022-11-23T01:41:43.022Z,7.38
2022-11-23T01:44:24.102Z,7.69
2022-11-23T01:46:57.137Z,7.89
2022-11-23T01:49:27.655Z,7.26
2022-11-23T01:51:59.954Z,5.82
2022-11-23T01:54:48.086Z,5.37
2022-11-23T01:57:26.470Z,6.25
2022-11-23T01:59:55.513Z,6.87
2022-11-23T02:02:23.910Z,7.03
2022-11-23T02:04:55.103Z,7.04
2022-11-23T02:07:24.278Z,7.03
2022-11-23T02:09:52.752Z,7.19
2022-11-23T02:12:20.517Z,7.20
2022-11-23T02:14:48.187Z,7.33
2022-11-23T02:17:17.273Z,7.69
2022-11-23T02:20:06.678Z,7.92
2022-11-23T02:23:06.135Z,7.53
2022-11-23T02:25:52.632Z,5.82
2022-11-23T02:28:32.821Z,4.68
2022-11-23T02:31:02.132Z,5.57
2022-11-23T02:33:30.650Z,6.55
2022-11-23T02:36:00.831Z,7.09
2022-11-23T02:38:32.924Z,7.27
2022-11-23T02:41:01.082Z,7.59
2022-11-23T02:43:28.815Z,7.71
2022-11-23T02:45:59.497Z,7.94
2022-11-23T02:48:29.402Z,7.01
2022-11-23T02:50:57.111Z,5.53
2022-11-23T02:53:25.123Z,5.33
2022-11-23T02:55:54.069Z,6.29
2022-11-23T02:58:21.720Z,7.22
2022-11-23T03:00:49.443Z,7.75
2022-11-23T03:03:18.447Z,8.21
2022-11-23T03:05:46.070Z,8.52
2022-11-23T03:08:13.902Z,8.40
2022-11-23T03:10:41.657Z,6.99
2022-11-23T03:13:09.822Z,5.65
2022-11-23T03:15:38.731Z,4.71
2022-11-23T03:18:06.687Z,4.99
2022-11-23T03:20:34.477Z,5.97
2022-11-23T03:23:02.318Z,6.67
2022-11-23T03:25:30.007Z,6.94
2022-11-23T03:27:57.901Z,7.73
2022-11-23T03:30:25.656Z,8.26
2022-11-23T03:32:54.464Z,8.56
2022-11-23T03:35:22.271Z,8.20
2022-11-23T03:38:19.154Z,6.56
2022-11-23T03:40:47.579Z,5.38
2022-11-23T03:43:35.599Z,4.42
2022-11-23T03:46:03.394Z,4.24
2022-11-23T03:48:31.189Z,5.05
2022-11-23T03:50:59.042Z,5.34
2022-11-23T03:53:26.742Z,5.40
2022-11-23T03:55:56.276Z,5.41
2022-11-23T03:58:24.980Z,6.22
2022-11-23T04:00:52.837Z,6.75
2022-11-23T04:03:20.729Z,6.68
2022-11-23T04:06:03.517Z,6.96
2022-11-23T04:08:50.312Z,7.15
2022-11-23T04:11:24.629Z,7.20
2022-11-23T04:13:52.335Z,7.06
2022-11-23T04:16:20.185Z,6.93
2022-11-23T04:18:48.030Z,7.13
2022-11-23T04:21:15.743Z,7.31
2022-11-23T04:23:44.233Z,7.70
2022-11-23T04:26:12.306Z,7.95
2022-11-23T04:28:42.195Z,7.47
2022-11-23T04:31:10.486Z,6.23
2022-11-23T04:33:49.359Z,4.96
2022-11-23T04:36:18.341Z,4.55
2022-11-23T04:38:46.061Z,5.78
2022-11-23T04:41:15.533Z,6.95
2022-11-23T04:43:43.192Z,7.74
2022-11-23T04:46:12.461Z,8.08
2022-11-23T04:48:40.185Z,8.27
2022-11-23T04:51:08.461Z,8.33
2022-11-23T04:53:38.010Z,7.76
2022-11-23T04:56:06.479Z,6.32
2022-11-23T04:58:37.330Z,5.12
2022-11-23T05:01:05.970Z,4.27
2022-11-23T05:03:35.419Z,4.16
2022-11-23T05:06:07.425Z,5.18
2022-11-23T05:08:39.933Z,5.84
2022-11-23T05:11:22.663Z,6.38
2022-11-23T05:13:50.832Z,6.79
2022-11-23T05:16:18.839Z,7.08
2022-11-23T05:18:46.528Z,7.08
2022-11-23T05:21:14.313Z,7.18
2022-11-23T05:23:42.572Z,7.21
2022-11-23T05:26:10.892Z,7.27
2022-11-23T05:28:41.444Z,7.77
2022-11-23T05:31:12.351Z,8.00
2022-11-23T05:33:40.545Z,7.49
2022-11-23T05:36:09.670Z,6.03
2022-11-23T05:38:41.752Z,4.83
2022-11-23T05:41:13.781Z,3.96
2022-11-23T05:43:43.889Z,3.89
2022-11-23T05:46:14.083Z,4.77
2022-11-23T05:48:42.037Z,5.61
2022-11-23T05:51:11.392Z,6.30
2022-11-23T05:53:44.387Z,6.67
2022-11-23T05:56:38.911Z,6.90
2022-11-23T05:59:16.341Z,6.99
2022-11-23T06:01:47.655Z,7.09
2022-11-23T06:04:21.460Z,7.20
2022-11-23T06:06:51.998Z,7.27
2022-11-23T06:09:20.857Z,7.30
2022-11-23T06:11:49.614Z,7.16
2022-11-23T06:14:20.930Z,7.32
2022-11-23T06:16:48.871Z,7.48
2022-11-23T06:19:37.191Z,7.54
2022-11-23T06:22:05.544Z,6.69
2022-11-23T06:24:36.117Z,5.37
2022-11-23T06:27:33.072Z,4.34
2022-11-23T06:30:01.128Z,4.83
2022-11-23T06:32:29.046Z,5.38
2022-11-23T06:35:00.766Z,5.74
2022-11-23T06:37:30.434Z,6.15
2022-11-23T06:39:58.100Z,6.64
2022-11-23T06:42:42.056Z,6.93
2022-11-23T06:45:17.080Z,7.22
2022-11-23T06:47:45.240Z,7.30
2022-11-23T06:50:14.520Z,7.18
2022-11-23T06:52:43.681Z,7.30
2022-11-23T06:55:11.553Z,7.33
2022-11-23T06:57:41.701Z,7.07
2022-11-23T07:00:11.390Z,6.91
2022-11-23T07:02:39.392Z,6.87
2022-11-23T07:28:25.679Z,5.89
2022-11-23T07:30:54.077Z,6.05
2022-11-23T07:33:22.161Z,6.34
2022-11-23T07:35:50.116Z,6.46
2022-11-23T07:38:17.978Z,6.45
2022-11-23T07:40:51.264Z,6.58
2022-11-23T07:43:36.763Z,6.93
2022-11-23T07:46:04.588Z,7.25
2022-11-23T07:48:36.330Z,7.38
2022-11-23T07:51:04.468Z,7.57
2022-11-23T07:53:32.115Z,7.41
2022-11-23T07:55:59.777Z,6.47
2022-11-23T07:58:27.668Z,5.22
2022-11-23T08:00:55.501Z,4.17
2022-11-23T08:03:28.172Z,3.73
2022-11-23T08:05:56.805Z,4.56
2022-11-23T08:08:24.933Z,5.30
2022-11-23T08:10:54.270Z,5.90
2022-11-23T08:13:22.526Z,6.16
2022-11-23T08:15:54.772Z,6.26
2022-11-23T08:18:24.306Z,6.33
2022-11-23T08:20:52.722Z,6.48
2022-11-23T08:23:21.102Z,6.49
2022-11-23T08:25:50.246Z,6.69
2022-11-23T08:28:18.355Z,7.05
2022-11-23T08:30:46.578Z,7.14
2022-11-23T08:33:15.182Z,7.27
2022-11-23T08:35:44.220Z,6.97
2022-11-23T08:38:13.047Z,5.67
2022-11-23T08:40:41.243Z,4.51
2022-11-23T08:43:09.068Z,4.62
2022-11-23T08:45:36.905Z,6.41
2022-11-23T08:48:05.049Z,8.18
2022-11-23T08:50:34.548Z,8.98
2022-11-23T08:53:02.576Z,7.49
2022-11-23T08:55:30.415Z,5.58
2022-11-23T08:57:59.430Z,4.36
2022-11-23T09:00:28.199Z,3.54
2022-11-23T09:02:59.949Z,4.50
2022-11-23T09:05:29.694Z,6.78
2022-11-23T09:08:01.584Z,7.72
2022-11-23T09:10:29.959Z,7.80
2022-11-23T09:12:59.184Z,7.84
2022-11-23T09:15:26.965Z,6.70
2022-11-23T09:17:54.765Z,5.29
2022-11-23T09:20:22.780Z,4.24
2022-11-23T09:22:52.498Z,4.46
2022-11-23T09:25:21.023Z,5.94
2022-11-23T09:27:49.612Z,6.59
2022-11-23T09:30:17.456Z,7.03
2022-11-23T09:32:45.228Z,7.25
2022-11-23T09:35:13.016Z,7.39
2022-11-23T09:37:40.860Z,7.55
2022-11-23T09:40:14.928Z,6.41
2022-11-23T09:43:24.106Z,5.05
2022-11-23T09:45:54.905Z,5.13
2022-11-23T09:48:52.039Z,7.02
2022-11-23T09:51:23.286Z,7.80
2022-11-23T09:54:02.956Z,8.19
2022-11-23T09:56:34.059Z,8.00
2022-11-23T09:59:10.680Z,6.54
2022-11-23T10:01:38.879Z,5.26
2022-11-23T10:04:07.393Z,4.36
2022-11-23T10:06:40.450Z,3.71
2022-11-23T10:09:17.397Z,4.12
2022-11-23T10:12:05.426Z,6.69
2022-11-23T10:14:33.659Z,7.99
2022-11-23T10:17:07.231Z,8.10
2022-11-23T10:20:13.299Z,8.18
2022-11-23T10:22:56.274Z,6.69
2022-11-23T10:25:25.727Z,5.33
2022-11-23T10:28:00.689Z,4.37
2022-11-23T10:30:28.571Z,4.14
2022-11-23T10:32:56.357Z,5.14
2022-11-23T10:35:33.247Z,5.82
2022-11-23T10:38:21.898Z,6.24
2022-11-23T10:40:57.257Z,6.59
2022-11-23T10:43:29.557Z,6.96
2022-11-23T10:46:24.409Z,7.21
2022-11-23T10:48:53.751Z,7.70
2022-11-23T10:51:24.459Z,7.50
2022-11-23T10:53:59.548Z,6.23
2022-11-23T10:56:32.753Z,5.01
2022-11-23T10:59:00.514Z,4.20
2022-11-23T11:01:30.258Z,3.61
2022-11-23T11:04:04.012Z,3.66
2022-11-23T11:06:36.058Z,5.28
2022-11-23T11:09:09.515Z,6.20
2022-11-23T11:11:46.659Z,7.15
2022-11-23T11:14:17.435Z,7.92
2022-11-23T11:16:58.452Z,8.17
2022-11-23T11:19:32.489Z,7.10
2022-11-23T11:22:21.457Z,5.57
2022-11-23T11:24:49.493Z,4.43
2022-11-23T11:27:21.729Z,4.26
2022-11-23T11:29:53.238Z,5.36
2022-11-23T11:32:34.318Z,6.14
2022-11-23T11:35:22.575Z,6.67
2022-11-23T11:37:51.832Z,7.27
2022-11-23T11:40:38.508Z,7.57
2022-11-23T11:43:27.046Z,7.74
2022-11-23T11:48:55.691Z,4.78
2022-11-23T11:51:32.224Z,4.55
2022-11-23T11:54:13.805Z,5.70
2022-11-23T11:56:45.376Z,6.59
2022-11-23T11:59:33.335Z,6.91
2022-11-23T12:02:19.542Z,7.06
2022-11-23T12:05:10.147Z,7.01
2022-11-23T12:07:53.431Z,6.67
2022-11-23T12:10:48.507Z,5.40
2022-11-23T12:13:19.602Z,4.30
2022-11-23T12:16:14.942Z,4.23
2022-11-23T12:19:06.726Z,6.12
2022-11-23T12:21:57.289Z,7.58
2022-11-23T12:25:11.529Z,8.59
2022-11-23T12:27:57.751Z,8.10
2022-11-23T12:30:40.589Z,6.44
2022-11-23T12:33:23.525Z,5.11
2022-11-23T12:36:02.040Z,4.29
2022-11-23T12:38:55.301Z,3.72
2022-11-23T12:41:24.012Z,5.15
2022-11-23T12:44:33.452Z,7.21
2022-11-23T12:47:13.272Z,8.14
2022-11-23T12:49:51.954Z,7.71
2022-11-23T12:52:35.632Z,6.17
2022-11-23T12:55:20.501Z,4.90
2022-11-23T12:58:00.297Z,3.99
2022-11-23T13:00:37.584Z,3.53
2022-11-23T13:03:18.093Z,4.35
2022-11-23T13:06:07.651Z,4.95
2022-11-23T13:08:35.381Z,5.13
2022-11-23T13:11:09.068Z,5.15
2022-11-23T13:13:55.490Z,5.39
2022-11-23T13:16:42.424Z,6.64
2022-11-23T13:19:45.702Z,7.30
2022-11-23T13:22:18.624Z,7.72
2022-11-23T13:25:07.786Z,6.94
2022-11-23T13:27:45.024Z,5.43
2022-11-23T13:30:51.947Z,4.39
2022-11-23T13:33:25.270Z,3.48
2022-11-23T13:36:02.114Z,3.38
2022-11-23T13:38:43.891Z,4.70
2022-11-23T13:41:44.151Z,5.84
2022-11-23T13:44:20.682Z,6.33
2022-11-23T13:47:11.959Z,6.55
2022-11-23T13:49:43.977Z,7.02
2022-11-23T13:52:20.985Z,7.25
2022-11-23T13:55:10.742Z,7.58
2022-11-23T13:57:40.619Z,7.18
2022-11-23T14:00:46.224Z,5.79
2022-11-23T14:03:42.162Z,4.29
2022-11-23T14:06:24.536Z,4.29
2022-11-23T14:09:12.928Z,5.49
2022-11-23T14:12:00.759Z,6.00
2022-11-23T14:14:43.681Z,6.19
2022-11-23T14:17:31.186Z,6.39
2022-11-23T14:20:10.133Z,6.50
2022-11-23T14:23:02.334Z,6.53
2022-11-23T14:25:55.967Z,6.74
2022-11-23T14:28:55.333Z,7.05
2022-11-23T14:32:01.024Z,6.81
2022-11-23T14:34:41.198Z,5.19
2022-11-23T14:37:22.955Z,4.13
2022-11-23T14:39:56.644Z,3.72
2022-11-23T14:42:28.286Z,5.40
2022-11-23T14:45:02.871Z,6.88
2022-11-23T14:47:33.717Z,7.57
2022-11-23T14:50:01.493Z,7.30
2022-11-23T14:52:33.273Z,5.86
2022-11-23T14:55:05.848Z,4.63
2022-11-23T14:57:42.340Z,3.74
2022-11-23T15:00:38.952Z,3.05
2022-11-23T15:03:34.573Z,2.88
2022-11-23T15:06:09.305Z,5.91
2022-11-23T15:09:04.825Z,7.89
2022-11-23T15:11:36.476Z,9.15
2022-11-23T15:14:25.454Z,8.52
2022-11-23T15:16:53.223Z,6.45
2022-11-23T15:19:28.978Z,5.02
2022-11-23T15:21:57.162Z,3.93
2022-11-23T15:24:26.989Z,3.35
2022-11-23T15:27:10.824Z,5.26
2022-11-23T15:29:40.168Z,7.53
2022-11-23T15:32:41.177Z,7.72
2022-11-23T15:35:14.211Z,5.90
2022-11-23T15:37:50.037Z,4.58
2022-11-23T15:40:19.495Z,3.64
2022-11-23T15:42:49.731Z,5.27
2022-11-23T15:46:01.789Z,7.55
2022-11-23T15:48:35.250Z,8.18
2022-11-23T15:51:06.320Z,6.57
2022-11-23T15:53:49.681Z,5.08
2022-11-23T15:56:29.298Z,3.79
2022-11-23T15:59:00.222Z,3.43
2022-11-23T16:01:28.427Z,5.88
2022-11-23T16:04:02.551Z,7.86
2022-11-23T16:06:36.685Z,8.83
2022-11-23T16:09:56.785Z,7.59
2022-11-23T16:12:33.842Z,5.42
2022-11-23T16:15:32.657Z,4.27
2022-11-23T16:18:02.316Z,3.41
2022-11-23T16:20:31.086Z,2.90
2022-11-23T16:23:00.671Z,2.49
2022-11-23T16:25:28.568Z,2.13
2022-11-23T16:28:06.590Z,2.99
2022-11-23T16:30:38.377Z,6.40
2022-11-23T16:33:10.903Z,8.39
2022-11-23T16:35:38.698Z,8.63
2022-11-23T16:38:06.823Z,7.05
2022-11-23T16:40:34.600Z,5.55
2022-11-23T16:43:04.086Z,4.45
2022-11-23T16:45:32.925Z,3.62
2022-11-23T16:48:02.509Z,3.01
2022-11-23T16:50:32.850Z,2.54
2022-11-23T16:53:15.843Z,3.10
2022-11-23T16:55:45.503Z,5.73
2022-11-23T16:58:15.710Z,7.69
2022-11-23T17:00:44.027Z,8.66
2022-11-23T17:03:19.106Z,7.36
2022-11-23T17:05:48.302Z,5.71
2022-11-23T17:08:23.043Z,4.51
2022-11-23T17:10:52.253Z,3.58
2022-11-23T17:13:26.662Z,2.92
2022-11-23T17:15:54.444Z,3.09
2022-11-23T17:18:22.495Z,5.60
2022-11-23T17:20:50.458Z,6.50
2022-11-23T17:23:18.342Z,6.68
2022-11-23T17:25:46.099Z,7.07
2022-11-23T17:28:17.103Z,6.96
2022-11-23T17:30:44.990Z,5.55
2022-11-23T17:33:13.084Z,4.27
2022-11-23T17:35:41.169Z,3.32
2022-11-23T17:38:15.358Z,2.63
2022-11-23T17:40:45.947Z,2.08
2022-11-23T17:43:14.269Z,2.59
2022-11-23T17:45:43.703Z,5.48
2022-11-23T17:48:12.882Z,7.52
2022-11-23T17:50:40.832Z,8.25
2022-11-23T17:53:09.885Z,7.01
2022-11-23T17:55:37.930Z,5.35
2022-11-23T17:58:05.924Z,4.17
2022-11-23T18:00:38.286Z,3.34
2022-11-23T18:03:06.134Z,2.69
2022-11-23T18:05:34.125Z,3.83
2022-11-23T18:08:01.979Z,6.43
2022-11-23T18:10:29.783Z,8.16
2022-11-23T18:12:57.830Z,8.58
2022-11-23T18:15:25.998Z,6.92
2022-11-23T18:17:54.175Z,5.27
2022-11-23T18:20:22.403Z,4.07
2022-11-23T18:22:50.415Z,3.23
2022-11-23T18:25:18.325Z,2.57
2022-11-23T18:27:45.979Z,3.29
2022-11-23T18:30:16.502Z,5.94
2022-11-23T18:32:44.333Z,7.78
2022-11-23T18:35:12.003Z,8.28
2022-11-23T18:37:39.759Z,6.77
2022-11-23T18:40:07.912Z,5.19
2022-11-23T18:42:35.683Z,4.01
2022-11-23T18:45:03.788Z,3.12
2022-11-23T18:47:32.256Z,2.45
2022-11-23T18:50:06.164Z,2.85
2022-11-23T18:52:34.660Z,5.76
2022-11-23T18:55:02.755Z,7.58
2022-11-23T18:57:30.475Z,7.90
2022-11-23T18:59:58.930Z,6.53
2022-11-23T19:02:27.113Z,5.00
2022-11-23T19:04:54.866Z,3.88
2022-11-23T19:07:26.818Z,3.06
2022-11-23T19:09:56.317Z,2.43
2022-11-23T19:12:24.079Z,1.93
2022-11-23T19:14:51.919Z,2.25
2022-11-23T19:17:19.900Z,4.61
2022-11-23T19:19:47.617Z,6.64
2022-11-23T19:22:15.286Z,7.86
2022-11-23T19:24:43.013Z,7.98
2022-11-23T19:27:10.649Z,6.29
2022-11-23T19:29:39.436Z,4.75
2022-11-23T19:32:07.525Z,3.55
2022-11-23T19:34:35.928Z,3.62
2022-11-23T19:37:03.601Z,5.52
2022-11-23T19:39:32.636Z,6.97
2022-11-23T19:42:00.541Z,7.16
2022-11-23T19:44:28.323Z,5.74
2022-11-23T19:46:56.180Z,4.23
2022-11-23T19:49:25.516Z,3.09
2022-11-23T19:51:54.137Z,2.31
2022-11-23T19:54:22.122Z,2.04
2022-11-23T19:56:51.071Z,4.16
2022-11-23T19:59:19.191Z,6.57
2022-11-23T20:01:46.974Z,7.79
2022-11-23T20:04:15.181Z,7.76
2022-11-23T20:06:43.611Z,6.02
2022-11-23T20:09:23.558Z,4.55
2022-11-23T20:11:51.936Z,3.37
2022-11-23T20:14:19.904Z,2.57
2022-11-23T20:16:47.908Z,1.93
2022-11-23T20:19:15.749Z,2.37
2022-11-23T20:21:43.883Z,5.49
2022-11-23T20:24:13.619Z,7.71
2022-11-23T20:26:42.297Z,8.19
2022-11-23T20:29:13.685Z,6.55
2022-11-23T20:31:41.749Z,4.98
2022-11-23T20:34:14.154Z,3.85
2022-11-23T20:36:44.598Z,3.03
2022-11-23T20:39:12.725Z,2.44
2022-11-23T20:41:40.437Z,1.95
2022-11-23T20:44:13.448Z,1.55
2022-11-23T20:49:30.218Z,6.03
2022-11-23T20:51:58.936Z,8.09
2022-11-23T20:54:27.089Z,8.28
2022-11-23T20:56:54.999Z,6.53
2022-11-23T20:59:23.841Z,4.93
2022-11-23T21:01:52.408Z,3.76
2022-11-23T21:04:20.221Z,2.94
2022-11-23T21:06:47.962Z,2.31
2022-11-23T21:09:17.054Z,1.81
2022-11-23T21:12:03.566Z,2.29
2022-11-23T21:14:32.835Z,6.14
2022-11-23T21:17:01.195Z,8.48
2022-11-23T21:19:34.782Z,8.69
2022-11-23T21:22:14.059Z,6.74
2022-11-23T21:24:41.855Z,5.03
2022-11-23T21:27:12.900Z,3.86
2022-11-23T21:29:40.596Z,3.00
2022-11-23T21:32:08.404Z,2.33
2022-11-23T21:34:36.464Z,3.82
2022-11-23T21:37:04.503Z,6.81
2022-11-23T21:39:33.007Z,7.93
2022-11-23T21:42:01.165Z,6.61
2022-11-23T21:44:29.223Z,4.94
2022-11-23T21:46:56.998Z,3.73
2022-11-23T21:49:27.748Z,2.88
2022-11-23T21:51:55.435Z,2.20
2022-11-23T21:54:23.114Z,1.67
2022-11-23T21:56:50.779Z,1.25
2022-11-23T21:59:18.693Z,1.87
2022-11-23T22:01:46.410Z,4.70
2022-11-23T22:04:15.751Z,6.77
2022-11-23T22:06:45.062Z,7.24
2022-11-23T22:09:13.729Z,5.87
2022-11-23T22:11:43.182Z,4.40
2022-11-23T22:14:13.449Z,3.34
2022-11-23T22:16:46.229Z,2.58
2022-11-23T22:19:15.698Z,1.93
2022-11-23T22:21:45.297Z,1.42
2022-11-23T22:24:15.478Z,1.37
2022-11-23T22:26:43.718Z,4.03
2022-11-23T22:29:11.781Z,6.69
2022-11-23T22:31:40.260Z,7.97
2022-11-23T22:34:11.694Z,6.70
2022-11-23T22:36:39.528Z,4.99
2022-11-23T22:39:08.041Z,3.79
2022-11-23T22:41:37.540Z,2.90
2022-11-23T22:44:07.637Z,2.21
2022-11-23T22:46:35.812Z,1.67
2022-11-23T22:49:04.670Z,1.86
2022-11-23T22:51:33.171Z,3.99
2022-11-23T22:54:01.701Z,5.68
2022-11-23T22:56:30.758Z,6.81
2022-11-23T22:58:59.200Z,7.13
2022-11-23T23:01:29.401Z,5.83
2022-11-23T23:03:59.699Z,4.37
2022-11-23T23:06:30.076Z,3.35
2022-11-23T23:08:59.068Z,2.59
2022-11-23T23:11:28.924Z,1.96
2022-11-23T23:13:56.669Z,1.45
2022-11-23T23:16:25.357Z,1.02
2022-11-23T23:18:56.803Z,1.75
2022-11-23T23:21:25.950Z,4.50
2022-11-23T23:23:56.231Z,5.92
2022-11-23T23:26:26.046Z,7.13
2022-11-23T23:28:54.766Z,6.53
2022-11-23T23:31:23.643Z,4.87
2022-11-23T23:33:53.607Z,3.65
2022-11-23T23:36:23.112Z,2.80
2022-11-23T23:38:51.171Z,2.20
2022-11-23T23:41:19.137Z,1.69
2022-11-23T23:43:48.292Z,1.28
2022-11-23T23:46:16.704Z,0.95
2022-11-23T23:48:44.631Z,1.29
2022-11-23T23:51:18.657Z,3.75
2022-11-23T23:53:47.271Z,6.43
2022-11-23T23:56:20.915Z,8.03
2022-11-23T23:58:48.807Z,8.11
